sensor_id;sensor_type;location;lat;lon;timestamp;temperature;humidity
74511;DHT22;62991;50.040;18.400;2023-02-28T00:00:37;3.20;47.10
74511;DHT22;62991;50.040;18.400;2023-02-28T00:03:38;3.20;46.70
74511;DHT22;62991;50.040;18.400;2023-02-28T00:06:39;3.20;46.60
74511;DHT22;62991;50.040;18.400;2023-02-28T00:09:39;3.30;46.70
74511;DHT22;62991;50.040;18.400;2023-02-28T00:12:40;3.30;46.60
74511;DHT22;62991;50.040;18.400;2023-02-28T00:15:41;3.30;46.80
74511;DHT22;62991;50.040;18.400;2023-02-28T00:18:41;3.30;46.60
74511;DHT22;62991;50.040;18.400;2023-02-28T00:21:42;3.30;46.40
74511;DHT22;62991;50.040;18.400;2023-02-28T00:24:44;3.30;46.30
74511;DHT22;62991;50.040;18.400;2023-02-28T00:27:46;3.40;46.20
74511;DHT22;62991;50.040;18.400;2023-02-28T00:30:47;3.40;46.10
74511;DHT22;62991;50.040;18.400;2023-02-28T00:33:47;3.40;46.10
74511;DHT22;62991;50.040;18.400;2023-02-28T00:36:48;3.50;45.80
74511;DHT22;62991;50.040;18.400;2023-02-28T00:39:52;3.50;45.80
74511;DHT22;62991;50.040;18.400;2023-02-28T00:42:52;3.40;45.80
74511;DHT22;62991;50.040;18.400;2023-02-28T00:45:53;3.40;45.70
74511;DHT22;62991;50.040;18.400;2023-02-28T00:48:54;3.40;46.20
74511;DHT22;62991;50.040;18.400;2023-02-28T00:51:55;3.30;46.00
74511;DHT22;62991;50.040;18.400;2023-02-28T00:54:56;3.20;46.40
74511;DHT22;62991;50.040;18.400;2023-02-28T00:57:57;3.10;46.60
74511;DHT22;62991;50.040;18.400;2023-02-28T01:00:57;3.00;46.70
74511;DHT22;62991;50.040;18.400;2023-02-28T01:03:58;3.00;47.20
74511;DHT22;62991;50.040;18.400;2023-02-28T01:06:59;2.90;47.20
74511;DHT22;62991;50.040;18.400;2023-02-28T01:09:59;2.90;47.20
74511;DHT22;62991;50.040;18.400;2023-02-28T01:13:01;2.90;47.50
74511;DHT22;62991;50.040;18.400;2023-02-28T01:16:02;2.80;47.60
74511;DHT22;62991;50.040;18.400;2023-02-28T01:19:02;2.60;48.10
74511;DHT22;62991;50.040;18.400;2023-02-28T01:22:03;2.60;48.20
74511;DHT22;62991;50.040;18.400;2023-02-28T01:25:05;2.50;48.20
74511;DHT22;62991;50.040;18.400;2023-02-28T01:28:06;2.60;48.40
74511;DHT22;62991;50.040;18.400;2023-02-28T01:31:07;2.50;48.20
74511;DHT22;62991;50.040;18.400;2023-02-28T01:34:08;2.50;48.40
74511;DHT22;62991;50.040;18.400;2023-02-28T01:37:09;2.50;48.60
74511;DHT22;62991;50.040;18.400;2023-02-28T01:40:10;2.50;48.50
74511;DHT22;62991;50.040;18.400;2023-02-28T01:43:23;2.40;48.50
74511;DHT22;62991;50.040;18.400;2023-02-28T01:46:24;2.40;48.30
74511;DHT22;62991;50.040;18.400;2023-02-28T01:49:25;2.40;48.40
74511;DHT22;62991;50.040;18.400;2023-02-28T01:52:26;2.40;48.30
74511;DHT22;62991;50.040;18.400;2023-02-28T01:55:28;2.30;48.40
74511;DHT22;62991;50.040;18.400;2023-02-28T01:58:29;2.30;48.40
74511;DHT22;62991;50.040;18.400;2023-02-28T02:01:31;2.20;48.50
74511;DHT22;62991;50.040;18.400;2023-02-28T02:04:41;2.20;48.40
74511;DHT22;62991;50.040;18.400;2023-02-28T02:07:45;2.20;48.20
74511;DHT22;62991;50.040;18.400;2023-02-28T02:11:01;2.30;48.30
74511;DHT22;62991;50.040;18.400;2023-02-28T02:17:40;2.20;48.40
74511;DHT22;62991;50.040;18.400;2023-02-28T02:21:02;2.20;48.40
74511;DHT22;62991;50.040;18.400;2023-02-28T02:34:55;2.10;48.60
74511;DHT22;62991;50.040;18.400;2023-02-28T02:38:11;2.10;48.50
74511;DHT22;62991;50.040;18.400;2023-02-28T02:41:24;2.00;48.40
74511;DHT22;62991;50.040;18.400;2023-02-28T02:44:39;2.00;48.30
74511;DHT22;62991;50.040;18.400;2023-02-28T02:47:42;2.00;48.30
74511;DHT22;62991;50.040;18.400;2023-02-28T02:50:46;2.00;48.50
74511;DHT22;62991;50.040;18.400;2023-02-28T02:56:50;1.90;48.70
74511;DHT22;62991;50.040;18.400;2023-02-28T02:59:53;2.00;48.50
74511;DHT22;62991;50.040;18.400;2023-02-28T03:02:55;1.90;48.60
74511;DHT22;62991;50.040;18.400;2023-02-28T03:05:59;1.70;48.90
74511;DHT22;62991;50.040;18.400;2023-02-28T03:09:00;1.80;49.20
74511;DHT22;62991;50.040;18.400;2023-02-28T03:12:02;1.80;49.10
74511;DHT22;62991;50.040;18.400;2023-02-28T03:18:19;1.60;49.40
74511;DHT22;62991;50.040;18.400;2023-02-28T03:28:03;1.50;49.80
74511;DHT22;62991;50.040;18.400;2023-02-28T03:31:28;1.50;49.70
74511;DHT22;62991;50.040;18.400;2023-02-28T03:34:34;1.60;49.30
74511;DHT22;62991;50.040;18.400;2023-02-28T03:37:39;1.50;49.80
74511;DHT22;62991;50.040;18.400;2023-02-28T03:40:46;1.60;49.50
74511;DHT22;62991;50.040;18.400;2023-02-28T03:43:58;1.60;49.40
74511;DHT22;62991;50.040;18.400;2023-02-28T03:47:39;1.50;49.70
74511;DHT22;62991;50.040;18.400;2023-02-28T03:50:44;1.50;49.50
74511;DHT22;62991;50.040;18.400;2023-02-28T03:54:09;1.50;49.30
74511;DHT22;62991;50.040;18.400;2023-02-28T03:57:23;1.50;49.60
74511;DHT22;62991;50.040;18.400;2023-02-28T04:00:35;1.50;49.50
74511;DHT22;62991;50.040;18.400;2023-02-28T04:03:38;1.40;49.70
74511;DHT22;62991;50.040;18.400;2023-02-28T04:06:40;1.40;49.80
74511;DHT22;62991;50.040;18.400;2023-02-28T04:09:41;1.50;49.80
74511;DHT22;62991;50.040;18.400;2023-02-28T04:12:42;1.50;49.60
74511;DHT22;62991;50.040;18.400;2023-02-28T04:15:42;1.40;50.30
74511;DHT22;62991;50.040;18.400;2023-02-28T04:18:43;1.40;50.00
74511;DHT22;62991;50.040;18.400;2023-02-28T04:21:54;1.20;50.40
74511;DHT22;62991;50.040;18.400;2023-02-28T04:24:55;1.10;50.60
74511;DHT22;62991;50.040;18.400;2023-02-28T04:27:55;1.00;50.90
74511;DHT22;62991;50.040;18.400;2023-02-28T04:31:02;0.90;51.30
74511;DHT22;62991;50.040;18.400;2023-02-28T04:34:03;0.90;51.50
74511;DHT22;62991;50.040;18.400;2023-02-28T04:37:04;0.80;51.80
74511;DHT22;62991;50.040;18.400;2023-02-28T04:40:06;0.70;52.20
74511;DHT22;62991;50.040;18.400;2023-02-28T04:43:07;0.60;52.80
74511;DHT22;62991;50.040;18.400;2023-02-28T04:46:08;0.70;52.60
74511;DHT22;62991;50.040;18.400;2023-02-28T04:49:11;0.70;52.50
74511;DHT22;62991;50.040;18.400;2023-02-28T04:52:12;0.70;52.60
74511;DHT22;62991;50.040;18.400;2023-02-28T04:55:13;0.70;52.90
74511;DHT22;62991;50.040;18.400;2023-02-28T04:58:14;0.70;52.90
74511;DHT22;62991;50.040;18.400;2023-02-28T05:01:21;0.50;53.30
74511;DHT22;62991;50.040;18.400;2023-02-28T05:04:22;0.50;53.50
74511;DHT22;62991;50.040;18.400;2023-02-28T05:07:23;0.50;53.80
74511;DHT22;62991;50.040;18.400;2023-02-28T05:10:24;0.30;54.20
74511;DHT22;62991;50.040;18.400;2023-02-28T05:13:24;0.10;55.10
74511;DHT22;62991;50.040;18.400;2023-02-28T05:16:25;0.20;54.90
74511;DHT22;62991;50.040;18.400;2023-02-28T05:19:26;0.20;55.10
74511;DHT22;62991;50.040;18.400;2023-02-28T05:22:26;0.10;55.20
74511;DHT22;62991;50.040;18.400;2023-02-28T05:25:27;0.10;55.30
74511;DHT22;62991;50.040;18.400;2023-02-28T05:28:28;0.00;55.70
74511;DHT22;62991;50.040;18.400;2023-02-28T05:31:29;0.10;55.60
74511;DHT22;62991;50.040;18.400;2023-02-28T05:34:29;0.00;55.80
74511;DHT22;62991;50.040;18.400;2023-02-28T05:37:30;-0.10;56.30
74511;DHT22;62991;50.040;18.400;2023-02-28T05:40:31;-0.20;57.00
74511;DHT22;62991;50.040;18.400;2023-02-28T05:43:31;-0.10;56.60
74511;DHT22;62991;50.040;18.400;2023-02-28T05:46:32;0.00;56.40
74511;DHT22;62991;50.040;18.400;2023-02-28T05:49:33;0.10;56.10
74511;DHT22;62991;50.040;18.400;2023-02-28T05:52:34;0.10;56.20
74511;DHT22;62991;50.040;18.400;2023-02-28T05:55:34;0.20;56.20
74511;DHT22;62991;50.040;18.400;2023-02-28T05:58:36;0.10;56.50
74511;DHT22;62991;50.040;18.400;2023-02-28T06:01:42;0.20;56.20
74511;DHT22;62991;50.040;18.400;2023-02-28T06:04:48;0.20;56.40
74511;DHT22;62991;50.040;18.400;2023-02-28T06:07:49;0.10;56.80
74511;DHT22;62991;50.040;18.400;2023-02-28T06:10:50;0.10;57.00
74511;DHT22;62991;50.040;18.400;2023-02-28T06:13:53;0.10;57.10
74511;DHT22;62991;50.040;18.400;2023-02-28T06:16:54;0.30;56.70
74511;DHT22;62991;50.040;18.400;2023-02-28T06:19:55;0.30;56.80
74511;DHT22;62991;50.040;18.400;2023-02-28T06:22:57;0.30;56.80
74511;DHT22;62991;50.040;18.400;2023-02-28T06:26:00;0.30;56.70
74511;DHT22;62991;50.040;18.400;2023-02-28T06:29:00;0.40;56.40
74511;DHT22;62991;50.040;18.400;2023-02-28T06:32:01;0.40;56.50
74511;DHT22;62991;50.040;18.400;2023-02-28T06:35:03;0.50;57.20
74511;DHT22;62991;50.040;18.400;2023-02-28T06:38:03;0.50;57.80
74511;DHT22;62991;50.040;18.400;2023-02-28T06:41:05;0.50;58.40
74511;DHT22;62991;50.040;18.400;2023-02-28T06:44:15;0.50;58.20
74511;DHT22;62991;50.040;18.400;2023-02-28T06:47:16;0.70;57.80
74511;DHT22;62991;50.040;18.400;2023-02-28T06:50:17;0.80;57.00
74511;DHT22;62991;50.040;18.400;2023-02-28T06:53:20;0.80;57.20
74511;DHT22;62991;50.040;18.400;2023-02-28T06:56:21;1.10;56.50
74511;DHT22;62991;50.040;18.400;2023-02-28T06:59:22;1.00;57.20
74511;DHT22;62991;50.040;18.400;2023-02-28T07:02:22;1.00;56.70
74511;DHT22;62991;50.040;18.400;2023-02-28T07:05:23;0.90;57.30
74511;DHT22;62991;50.040;18.400;2023-02-28T07:08:25;0.90;57.20
74511;DHT22;62991;50.040;18.400;2023-02-28T07:11:27;1.00;57.00
74511;DHT22;62991;50.040;18.400;2023-02-28T07:14:27;1.00;57.00
74511;DHT22;62991;50.040;18.400;2023-02-28T07:17:28;1.20;57.20
74511;DHT22;62991;50.040;18.400;2023-02-28T07:20:29;0.90;56.20
74511;DHT22;62991;50.040;18.400;2023-02-28T07:23:30;0.80;56.50
74511;DHT22;62991;50.040;18.400;2023-02-28T07:26:31;0.90;56.40
74511;DHT22;62991;50.040;18.400;2023-02-28T07:29:34;0.90;56.20
74511;DHT22;62991;50.040;18.400;2023-02-28T07:32:35;1.20;55.50
74511;DHT22;62991;50.040;18.400;2023-02-28T07:35:38;1.20;55.40
74511;DHT22;62991;50.040;18.400;2023-02-28T07:38:38;1.20;55.50
74511;DHT22;62991;50.040;18.400;2023-02-28T07:41:39;1.30;56.30
74511;DHT22;62991;50.040;18.400;2023-02-28T07:44:43;1.30;55.40
74511;DHT22;62991;50.040;18.400;2023-02-28T07:47:44;1.50;54.70
74511;DHT22;62991;50.040;18.400;2023-02-28T07:50:45;1.40;54.60
74511;DHT22;62991;50.040;18.400;2023-02-28T07:53:56;1.50;54.60
74511;DHT22;62991;50.040;18.400;2023-02-28T07:56:56;1.80;54.20
74511;DHT22;62991;50.040;18.400;2023-02-28T07:59:57;2.10;53.20
74511;DHT22;62991;50.040;18.400;2023-02-28T08:02:58;1.90;53.30
74511;DHT22;62991;50.040;18.400;2023-02-28T08:05:58;2.10;52.90
74511;DHT22;62991;50.040;18.400;2023-02-28T08:08:59;2.30;52.40
74511;DHT22;62991;50.040;18.400;2023-02-28T08:12:00;2.30;52.20
74511;DHT22;62991;50.040;18.400;2023-02-28T08:15:01;2.50;52.10
74511;DHT22;62991;50.040;18.400;2023-02-28T08:18:01;2.80;51.20
74511;DHT22;62991;50.040;18.400;2023-02-28T08:21:07;3.00;50.60
74511;DHT22;62991;50.040;18.400;2023-02-28T08:24:08;3.30;50.00
74511;DHT22;62991;50.040;18.400;2023-02-28T08:27:09;3.50;49.40
74511;DHT22;62991;50.040;18.400;2023-02-28T08:30:12;3.60;49.10
74511;DHT22;62991;50.040;18.400;2023-02-28T08:33:13;3.70;48.30
74511;DHT22;62991;50.040;18.400;2023-02-28T08:36:13;3.70;48.30
74511;DHT22;62991;50.040;18.400;2023-02-28T08:39:15;3.80;48.40
74511;DHT22;62991;50.040;18.400;2023-02-28T08:42:16;4.00;47.90
74511;DHT22;62991;50.040;18.400;2023-02-28T08:45:16;4.30;47.60
74511;DHT22;62991;50.040;18.400;2023-02-28T08:48:17;4.40;47.30
74511;DHT22;62991;50.040;18.400;2023-02-28T08:51:18;4.50;45.80
74511;DHT22;62991;50.040;18.400;2023-02-28T08:54:26;4.50;46.50
74511;DHT22;62991;50.040;18.400;2023-02-28T08:57:29;4.70;46.10
74511;DHT22;62991;50.040;18.400;2023-02-28T09:00:30;4.80;46.20
74511;DHT22;62991;50.040;18.400;2023-02-28T09:03:30;4.90;45.70
74511;DHT22;62991;50.040;18.400;2023-02-28T09:06:32;4.80;45.70
74511;DHT22;62991;50.040;18.400;2023-02-28T09:09:32;4.80;45.60
74511;DHT22;62991;50.040;18.400;2023-02-28T09:12:34;5.10;45.10
74511;DHT22;62991;50.040;18.400;2023-02-28T09:15:37;5.10;45.10
74511;DHT22;62991;50.040;18.400;2023-02-28T09:18:39;5.30;44.30
74511;DHT22;62991;50.040;18.400;2023-02-28T09:21:40;5.30;44.80
74511;DHT22;62991;50.040;18.400;2023-02-28T09:24:41;5.50;43.70
74511;DHT22;62991;50.040;18.400;2023-02-28T09:27:41;5.30;43.30
74511;DHT22;62991;50.040;18.400;2023-02-28T09:30:46;5.10;43.80
74511;DHT22;62991;50.040;18.400;2023-02-28T09:33:52;5.30;44.00
74511;DHT22;62991;50.040;18.400;2023-02-28T09:36:53;5.40;43.20
74511;DHT22;62991;50.040;18.400;2023-02-28T09:39:55;5.40;43.10
74511;DHT22;62991;50.040;18.400;2023-02-28T09:42:57;5.70;42.50
74511;DHT22;62991;50.040;18.400;2023-02-28T09:46:32;6.10;42.30
74511;DHT22;62991;50.040;18.400;2023-02-28T09:49:39;6.40;41.80
74511;DHT22;62991;50.040;18.400;2023-02-28T09:52:41;6.20;40.10
74511;DHT22;62991;50.040;18.400;2023-02-28T09:55:48;6.00;41.70
74511;DHT22;62991;50.040;18.400;2023-02-28T09:59:10;6.10;40.90
74511;DHT22;62991;50.040;18.400;2023-02-28T10:09:24;6.00;41.60
74511;DHT22;62991;50.040;18.400;2023-02-28T10:12:26;6.20;40.80
74511;DHT22;62991;50.040;18.400;2023-02-28T10:15:31;6.30;40.80
74511;DHT22;62991;50.040;18.400;2023-02-28T10:18:51;6.50;40.60
74511;DHT22;62991;50.040;18.400;2023-02-28T10:22:08;6.50;40.20
74511;DHT22;62991;50.040;18.400;2023-02-28T10:25:23;6.90;40.20
74511;DHT22;62991;50.040;18.400;2023-02-28T10:28:25;7.00;38.90
74511;DHT22;62991;50.040;18.400;2023-02-28T10:31:26;6.40;39.40
74511;DHT22;62991;50.040;18.400;2023-02-28T10:34:27;6.60;39.50
74511;DHT22;62991;50.040;18.400;2023-02-28T10:37:28;6.80;39.80
74511;DHT22;62991;50.040;18.400;2023-02-28T10:40:33;7.00;43.50
74511;DHT22;62991;50.040;18.400;2023-02-28T10:43:37;7.00;40.40
74511;DHT22;62991;50.040;18.400;2023-02-28T10:46:40;7.40;38.90
74511;DHT22;62991;50.040;18.400;2023-02-28T10:49:47;7.10;38.60
74511;DHT22;62991;50.040;18.400;2023-02-28T10:52:48;6.60;40.60
74511;DHT22;62991;50.040;18.400;2023-02-28T11:02:29;7.30;39.10
74511;DHT22;62991;50.040;18.400;2023-02-28T11:05:32;7.70;38.20
74511;DHT22;62991;50.040;18.400;2023-02-28T11:08:34;7.50;38.40
74511;DHT22;62991;50.040;18.400;2023-02-28T11:11:53;7.80;38.40
74511;DHT22;62991;50.040;18.400;2023-02-28T11:15:07;8.00;38.40
74511;DHT22;62991;50.040;18.400;2023-02-28T11:18:27;8.10;37.60
74511;DHT22;62991;50.040;18.400;2023-02-28T11:21:32;7.90;37.80
74511;DHT22;62991;50.040;18.400;2023-02-28T11:24:45;7.60;37.70
74511;DHT22;62991;50.040;18.400;2023-02-28T11:27:52;7.70;38.40
74511;DHT22;62991;50.040;18.400;2023-02-28T11:34:26;8.90;37.60
74511;DHT22;62991;50.040;18.400;2023-02-28T11:37:28;9.10;36.60
74511;DHT22;62991;50.040;18.400;2023-02-28T11:47:38;9.10;36.70
74511;DHT22;62991;50.040;18.400;2023-02-28T11:54:27;10.10;34.60
74511;DHT22;62991;50.040;18.400;2023-02-28T12:14:59;12.30;32.40
74511;DHT22;62991;50.040;18.400;2023-02-28T12:27:30;14.50;33.00
74511;DHT22;62991;50.040;18.400;2023-02-28T12:30:34;21.50;26.50
74511;DHT22;62991;50.040;18.400;2023-02-28T12:33:45;26.10;22.90
74511;DHT22;62991;50.040;18.400;2023-02-28T12:36:47;30.70;20.40
74511;DHT22;62991;50.040;18.400;2023-02-28T12:39:54;33.30;19.10
74511;DHT22;62991;50.040;18.400;2023-02-28T12:43:04;34.70;18.30
74511;DHT22;62991;50.040;18.400;2023-02-28T12:46:23;36.80;18.00
74511;DHT22;62991;50.040;18.400;2023-02-28T12:49:35;38.70;17.00
74511;DHT22;62991;50.040;18.400;2023-02-28T12:52:58;38.90;16.30
74511;DHT22;62991;50.040;18.400;2023-02-28T12:56:07;40.30;16.60
74511;DHT22;62991;50.040;18.400;2023-02-28T13:09:14;45.80;15.20
74511;DHT22;62991;50.040;18.400;2023-02-28T13:12:16;44.60;14.80
74511;DHT22;62991;50.040;18.400;2023-02-28T13:15:25;42.80;15.50
74511;DHT22;62991;50.040;18.400;2023-02-28T13:18:39;44.90;15.30
74511;DHT22;62991;50.040;18.400;2023-02-28T13:21:44;44.20;15.00
74511;DHT22;62991;50.040;18.400;2023-02-28T13:27:54;45.60;14.90
74511;DHT22;62991;50.040;18.400;2023-02-28T13:31:02;46.10;15.00
74511;DHT22;62991;50.040;18.400;2023-02-28T13:34:13;44.60;14.80
74511;DHT22;62991;50.040;18.400;2023-02-28T13:40:32;40.30;15.40
74511;DHT22;62991;50.040;18.400;2023-02-28T13:44:04;40.50;15.50
74511;DHT22;62991;50.040;18.400;2023-02-28T13:56:57;40.90;15.40
74511;DHT22;62991;50.040;18.400;2023-02-28T14:06:37;36.20;16.10
74511;DHT22;62991;50.040;18.400;2023-02-28T14:09:41;38.00;16.40
74511;DHT22;62991;50.040;18.400;2023-02-28T14:13:36;39.30;16.00
74511;DHT22;62991;50.040;18.400;2023-02-28T14:16:52;38.00;15.90
74511;DHT22;62991;50.040;18.400;2023-02-28T14:19:53;37.00;16.40
74511;DHT22;62991;50.040;18.400;2023-02-28T14:23:20;33.20;17.20
74511;DHT22;62991;50.040;18.400;2023-02-28T14:32:51;23.50;21.20
74511;DHT22;62991;50.040;18.400;2023-02-28T14:39:32;19.90;23.70
74511;DHT22;62991;50.040;18.400;2023-02-28T14:42:35;20.00;23.90
74511;DHT22;62991;50.040;18.400;2023-02-28T14:45:38;20.40;23.50
74511;DHT22;62991;50.040;18.400;2023-02-28T14:48:38;19.10;24.60
74511;DHT22;62991;50.040;18.400;2023-02-28T14:51:39;18.20;25.50
74511;DHT22;62991;50.040;18.400;2023-02-28T14:54:41;17.70;25.60
74511;DHT22;62991;50.040;18.400;2023-02-28T14:57:57;16.20;26.70
74511;DHT22;62991;50.040;18.400;2023-02-28T15:01:00;15.00;27.80
74511;DHT22;62991;50.040;18.400;2023-02-28T15:04:06;14.20;29.00
74511;DHT22;62991;50.040;18.400;2023-02-28T15:07:14;13.30;30.00
74511;DHT22;62991;50.040;18.400;2023-02-28T15:13:19;13.30;30.50
74511;DHT22;62991;50.040;18.400;2023-02-28T15:16:41;12.50;31.00
74511;DHT22;62991;50.040;18.400;2023-02-28T15:19:45;12.40;31.00
74511;DHT22;62991;50.040;18.400;2023-02-28T15:22:51;12.10;31.70
74511;DHT22;62991;50.040;18.400;2023-02-28T15:25:53;11.60;31.90
74511;DHT22;62991;50.040;18.400;2023-02-28T15:29:00;11.20;32.40
74511;DHT22;62991;50.040;18.400;2023-02-28T15:32:04;10.90;32.80
74511;DHT22;62991;50.040;18.400;2023-02-28T15:35:27;10.30;33.60
74511;DHT22;62991;50.040;18.400;2023-02-28T15:38:28;10.40;33.50
74511;DHT22;62991;50.040;18.400;2023-02-28T15:41:35;10.20;34.00
74511;DHT22;62991;50.040;18.400;2023-02-28T15:44:38;10.30;33.60
74511;DHT22;62991;50.040;18.400;2023-02-28T15:47:39;9.80;34.40
74511;DHT22;62991;50.040;18.400;2023-02-28T15:50:40;9.70;34.40
74511;DHT22;62991;50.040;18.400;2023-02-28T15:54:01;9.30;36.70
74511;DHT22;62991;50.040;18.400;2023-02-28T15:57:06;9.40;35.20
74511;DHT22;62991;50.040;18.400;2023-02-28T16:00:14;8.90;35.60
74511;DHT22;62991;50.040;18.400;2023-02-28T16:03:46;8.80;35.90
74511;DHT22;62991;50.040;18.400;2023-02-28T16:07:02;8.30;36.80
74511;DHT22;62991;50.040;18.400;2023-02-28T16:10:05;8.10;37.30
74511;DHT22;62991;50.040;18.400;2023-02-28T16:13:06;8.10;37.10
74511;DHT22;62991;50.040;18.400;2023-02-28T16:16:07;7.90;37.40
74511;DHT22;62991;50.040;18.400;2023-02-28T16:19:08;7.70;38.00
74511;DHT22;62991;50.040;18.400;2023-02-28T16:22:09;7.60;38.20
74511;DHT22;62991;50.040;18.400;2023-02-28T16:25:14;7.40;38.60
74511;DHT22;62991;50.040;18.400;2023-02-28T16:28:29;7.50;38.80
74511;DHT22;62991;50.040;18.400;2023-02-28T16:31:36;7.50;38.60
74511;DHT22;62991;50.040;18.400;2023-02-28T16:34:37;7.40;39.00
74511;DHT22;62991;50.040;18.400;2023-02-28T16:37:38;7.10;39.20
74511;DHT22;62991;50.040;18.400;2023-02-28T16:40:38;6.90;39.70
74511;DHT22;62991;50.040;18.400;2023-02-28T16:43:39;6.80;39.70
74511;DHT22;62991;50.040;18.400;2023-02-28T16:46:40;6.70;39.90
74511;DHT22;62991;50.040;18.400;2023-02-28T16:49:40;6.60;40.10
74511;DHT22;62991;50.040;18.400;2023-02-28T16:52:43;6.70;40.10
74511;DHT22;62991;50.040;18.400;2023-02-28T16:55:44;6.60;40.10
74511;DHT22;62991;50.040;18.400;2023-02-28T16:58:45;6.60;40.30
74511;DHT22;62991;50.040;18.400;2023-02-28T17:01:47;6.50;40.50
74511;DHT22;62991;50.040;18.400;2023-02-28T17:04:47;6.30;40.70
74511;DHT22;62991;50.040;18.400;2023-02-28T17:07:48;6.30;40.80
74511;DHT22;62991;50.040;18.400;2023-02-28T17:10:49;6.20;40.90
74511;DHT22;62991;50.040;18.400;2023-02-28T17:13:50;6.20;41.00
74511;DHT22;62991;50.040;18.400;2023-02-28T17:16:51;6.00;41.40
74511;DHT22;62991;50.040;18.400;2023-02-28T17:19:52;5.90;41.40
74511;DHT22;62991;50.040;18.400;2023-02-28T17:22:53;5.80;41.60
74511;DHT22;62991;50.040;18.400;2023-02-28T17:25:54;5.80;41.50
74511;DHT22;62991;50.040;18.400;2023-02-28T17:28:56;5.70;41.80
74511;DHT22;62991;50.040;18.400;2023-02-28T17:31:57;5.60;42.10
74511;DHT22;62991;50.040;18.400;2023-02-28T17:34:58;5.60;42.00
74511;DHT22;62991;50.040;18.400;2023-02-28T17:37:58;5.60;42.10
74511;DHT22;62991;50.040;18.400;2023-02-28T17:40:59;5.50;42.20
74511;DHT22;62991;50.040;18.400;2023-02-28T17:44:00;5.40;42.30
74511;DHT22;62991;50.040;18.400;2023-02-28T17:47:00;5.20;42.80
74511;DHT22;62991;50.040;18.400;2023-02-28T17:50:01;5.30;42.90
74511;DHT22;62991;50.040;18.400;2023-02-28T17:53:02;5.30;42.80
74511;DHT22;62991;50.040;18.400;2023-02-28T17:56:02;5.30;42.70
74511;DHT22;62991;50.040;18.400;2023-02-28T17:59:03;5.20;42.80
74511;DHT22;62991;50.040;18.400;2023-02-28T18:02:04;5.20;43.00
74511;DHT22;62991;50.040;18.400;2023-02-28T18:05:05;4.90;43.40
74511;DHT22;62991;50.040;18.400;2023-02-28T18:08:09;4.90;43.50
74511;DHT22;62991;50.040;18.400;2023-02-28T18:11:10;4.70;44.00
74511;DHT22;62991;50.040;18.400;2023-02-28T18:14:18;4.70;43.90
74511;DHT22;62991;50.040;18.400;2023-02-28T18:17:19;4.70;44.20
74511;DHT22;62991;50.040;18.400;2023-02-28T18:20:21;4.80;43.60
74511;DHT22;62991;50.040;18.400;2023-02-28T18:23:21;4.70;44.00
74511;DHT22;62991;50.040;18.400;2023-02-28T18:26:22;4.70;44.10
74511;DHT22;62991;50.040;18.400;2023-02-28T18:29:25;4.70;43.90
74511;DHT22;62991;50.040;18.400;2023-02-28T18:32:27;4.70;43.90
74511;DHT22;62991;50.040;18.400;2023-02-28T18:35:28;4.70;43.90
74511;DHT22;62991;50.040;18.400;2023-02-28T18:38:35;4.70;43.90
74511;DHT22;62991;50.040;18.400;2023-02-28T18:41:36;4.80;43.90
74511;DHT22;62991;50.040;18.400;2023-02-28T18:44:37;4.70;44.00
74511;DHT22;62991;50.040;18.400;2023-02-28T18:47:37;4.70;44.10
74511;DHT22;62991;50.040;18.400;2023-02-28T18:50:38;4.60;44.20
74511;DHT22;62991;50.040;18.400;2023-02-28T18:53:40;4.50;44.40
74511;DHT22;62991;50.040;18.400;2023-02-28T18:56:41;4.60;44.20
74511;DHT22;62991;50.040;18.400;2023-02-28T18:59:42;4.50;44.40
74511;DHT22;62991;50.040;18.400;2023-02-28T19:02:42;4.50;44.40
74511;DHT22;62991;50.040;18.400;2023-02-28T19:05:43;4.50;44.40
74511;DHT22;62991;50.040;18.400;2023-02-28T19:08:44;4.50;44.50
74511;DHT22;62991;50.040;18.400;2023-02-28T19:11:45;4.50;44.60
74511;DHT22;62991;50.040;18.400;2023-02-28T19:14:45;4.50;44.60
74511;DHT22;62991;50.040;18.400;2023-02-28T19:17:46;4.40;44.80
74511;DHT22;62991;50.040;18.400;2023-02-28T19:20:47;4.30;45.30
74511;DHT22;62991;50.040;18.400;2023-02-28T19:23:48;4.40;45.10
74511;DHT22;62991;50.040;18.400;2023-02-28T19:26:49;4.40;45.20
74511;DHT22;62991;50.040;18.400;2023-02-28T19:29:51;4.40;45.30
74511;DHT22;62991;50.040;18.400;2023-02-28T19:32:52;4.40;45.30
74511;DHT22;62991;50.040;18.400;2023-02-28T19:35:53;4.50;45.20
74511;DHT22;62991;50.040;18.400;2023-02-28T19:38:54;4.40;45.40
74511;DHT22;62991;50.040;18.400;2023-02-28T19:41:54;4.30;45.50
74511;DHT22;62991;50.040;18.400;2023-02-28T19:44:55;4.30;45.40
74511;DHT22;62991;50.040;18.400;2023-02-28T19:47:56;4.20;45.70
74511;DHT22;62991;50.040;18.400;2023-02-28T19:50:58;4.20;45.90
74511;DHT22;62991;50.040;18.400;2023-02-28T19:54:00;4.20;45.80
74511;DHT22;62991;50.040;18.400;2023-02-28T19:57:01;4.20;45.90
74511;DHT22;62991;50.040;18.400;2023-02-28T20:00:02;4.20;46.10
74511;DHT22;62991;50.040;18.400;2023-02-28T20:03:03;4.30;45.80
74511;DHT22;62991;50.040;18.400;2023-02-28T20:06:07;4.30;45.70
74511;DHT22;62991;50.040;18.400;2023-02-28T20:09:09;4.30;46.00
74511;DHT22;62991;50.040;18.400;2023-02-28T20:12:09;4.30;45.90
74511;DHT22;62991;50.040;18.400;2023-02-28T20:15:10;4.30;45.80
74511;DHT22;62991;50.040;18.400;2023-02-28T20:18:11;4.30;45.80
74511;DHT22;62991;50.040;18.400;2023-02-28T20:21:13;4.20;46.20
74511;DHT22;62991;50.040;18.400;2023-02-28T20:24:14;4.10;46.40
74511;DHT22;62991;50.040;18.400;2023-02-28T20:27:14;4.00;46.60
74511;DHT22;62991;50.040;18.400;2023-02-28T20:30:15;4.10;46.70
74511;DHT22;62991;50.040;18.400;2023-02-28T20:33:17;4.00;46.70
74511;DHT22;62991;50.040;18.400;2023-02-28T20:36:19;4.00;46.70
74511;DHT22;62991;50.040;18.400;2023-02-28T20:39:20;4.10;46.60
74511;DHT22;62991;50.040;18.400;2023-02-28T20:42:21;4.10;46.60
74511;DHT22;62991;50.040;18.400;2023-02-28T20:45:22;4.10;46.50
74511;DHT22;62991;50.040;18.400;2023-02-28T20:48:24;4.10;46.60
74511;DHT22;62991;50.040;18.400;2023-02-28T20:51:25;4.10;46.50
74511;DHT22;62991;50.040;18.400;2023-02-28T20:54:26;4.10;46.50
74511;DHT22;62991;50.040;18.400;2023-02-28T20:57:28;4.00;46.70
74511;DHT22;62991;50.040;18.400;2023-02-28T21:00:30;4.00;46.70
74511;DHT22;62991;50.040;18.400;2023-02-28T21:03:31;4.00;46.80
74511;DHT22;62991;50.040;18.400;2023-02-28T21:06:38;3.90;46.90
74511;DHT22;62991;50.040;18.400;2023-02-28T21:09:39;3.90;47.00
74511;DHT22;62991;50.040;18.400;2023-02-28T21:12:39;3.90;47.00
74511;DHT22;62991;50.040;18.400;2023-02-28T21:15:40;3.90;46.90
74511;DHT22;62991;50.040;18.400;2023-02-28T21:18:41;3.90;47.00
74511;DHT22;62991;50.040;18.400;2023-02-28T21:21:43;3.90;47.00
74511;DHT22;62991;50.040;18.400;2023-02-28T21:24:44;3.80;46.80